Terminal Aerodrome Forecast
Issued by NWS

Home | Current Version | Previous Version | Text Only | Print | Product List | Glossary On
Versions: 1 2 3 4 5 6 7 8 9 10 11 12 13 14 15 16 17
000
FTUS41 KCAR 191300 AAB
TAFFVE
TAF AMD
KFVE 191317Z 1913/2012 VRB03KT 3SM BR BKN003 OVC015
     FM191400 26006KT P6SM OVC025
     FM191800 32015G25KT P6SM OVC025
     FM192100 32012G22KT P6SM OVC040
     FM200300 33005KT P6SM FEW250=

USA.gov is the U.S. government's official web portal to all federal, state and local government web resources and services.